Time;durP1;ratioP1;P1;durP2;ratioP2;P2;SDS_P1;SDS_P2;PMS_P1;PMS_P2;Temp;Humidity;BMP_temperature;BMP_pressure;BME280_temperature;BME280_humidity;BME280_pressure;Samples;Min_cycle;Max_cycle;Signal;HPM_P1;HPM_P2
2022/12/29 00:02:01;;;;;;;6.93;2.80;;;;;;;6.60;83.54;96029.44;5037838;28;20621;-73
2022/12/29 00:04:27;;;;;;;4.90;2.10;;;;;;;6.65;84.27;96013.06;5036659;28;20216;-73
2022/12/29 00:06:55;;;;;;;4.70;2.10;;;;;;;6.52;84.91;96003.19;5037342;28;20212;-73
2022/12/29 00:09:22;;;;;;;5.40;2.63;;;;;;;6.36;85.49;96009.19;5037393;28;20240;-71
2022/12/29 00:11:49;;;;;;;7.47;2.13;;;;;;;6.28;86.26;96008.34;5037834;28;20213;-72
2022/12/29 00:17:00;;;;;;;5.30;2.30;;;;;;;6.16;87.52;95999.13;5037390;28;20204;-72
2022/12/29 00:36:00;;;;;;;4.07;1.50;;;;;;;6.29;87.00;95987.25;5036335;28;20212;-73
2022/12/29 00:44:06;;;;;;;2.30;1.30;;;;;;;6.26;86.45;95998.03;5036287;28;20250;-73
2022/12/29 00:46:33;;;;;;;2.73;1.30;;;;;;;6.34;84.43;95998.06;5036555;28;20208;-71
2022/12/29 00:51:43;;;;;;;1.57;1.00;;;;;;;6.52;81.97;95988.34;5037340;28;20216;-71
2022/12/29 00:54:11;;;;;;;3.40;1.27;;;;;;;6.68;80.95;95994.44;5035881;28;20216;-71
2022/12/29 00:56:38;;;;;;;1.33;1.20;;;;;;;6.62;81.64;95996.88;5036704;28;20205;-71
2022/12/29 00:59:05;;;;;;;2.03;1.20;;;;;;;6.79;80.22;95995.94;5037481;28;20228;-71
2022/12/29 01:01:32;;;;;;;2.47;1.27;;;;;;;6.73;78.81;95991.31;5036242;28;20224;-71
2022/12/29 01:03:59;;;;;;;4.50;1.30;;;;;;;6.81;79.57;95989.56;5036285;28;20201;-71
2022/12/29 01:06:27;;;;;;;2.60;1.10;;;;;;;6.75;79.40;95981.53;5036229;28;20216;-71
2022/12/29 01:11:35;;;;;;;3.60;1.57;;;;;;;6.97;78.13;95975.69;5036290;28;20205;-71
2022/12/29 01:14:01;;;;;;;2.63;1.00;;;;;;;6.96;77.17;95979.28;5035552;28;20401;-71
2022/12/29 01:16:28;;;;;;;1.80;1.00;;;;;;;6.94;78.61;95974.19;5036523;28;20200;-72
2022/12/29 01:18:54;;;;;;;2.00;0.97;;;;;;;6.98;77.24;95979.94;5035710;28;20220;-71
2022/12/29 01:21:21;;;;;;;1.60;0.90;;;;;;;6.98;77.26;95978.13;5036557;28;20225;-73
2022/12/29 01:23:47;;;;;;;3.00;1.03;;;;;;;7.05;76.38;95975.69;5035607;28;20819;-71
2022/12/29 01:26:16;;;;;;;3.43;1.20;;;;;;;7.07;78.58;95966.69;5036201;28;20209;-72
2022/12/29 01:28:44;;;;;;;1.13;0.87;;;;;;;7.02;77.47;95973.41;5036113;28;20208;-70
2022/12/29 01:31:12;;;;;;;1.97;1.07;;;;;;;7.07;77.28;95973.72;5036393;28;20527;-72
2022/12/29 01:33:40;;;;;;;2.00;1.20;;;;;;;7.08;75.39;95970.13;5035241;28;20201;-73
2022/12/29 01:36:08;;;;;;;1.20;1.00;;;;;;;7.24;75.17;95964.91;5036503;28;20708;-72
2022/12/29 01:38:36;;;;;;;0.90;0.80;;;;;;;7.24;75.47;95972.75;5035810;28;20197;-71
2022/12/29 01:41:04;;;;;;;1.17;0.93;;;;;;;7.06;77.96;95970.28;5035842;28;20226;-71
2022/12/29 01:43:41;;;;;;;1.03;0.70;;;;;;;7.27;74.33;95979.31;5036148;28;20205;-71
2022/12/29 01:46:19;;;;;;;1.83;1.10;;;;;;;7.26;76.73;95979.47;5035999;28;20209;-71
2022/12/29 01:48:47;;;;;;;2.27;1.17;;;;;;;7.21;76.00;95976.53;5035336;28;20607;-73
2022/12/29 01:51:14;;;;;;;2.70;1.10;;;;;;;7.18;76.27;95981.25;5036714;28;20204;-73
2022/12/29 01:53:40;;;;;;;1.67;1.00;;;;;;;7.17;76.14;95980.44;5035193;28;20642;-72
2022/12/29 01:56:09;;;;;;;3.17;1.17;;;;;;;7.27;75.80;95983.75;5035530;28;20232;-73
2022/12/29 01:58:40;;;;;;;1.17;0.97;;;;;;;7.31;75.13;95988.47;5035642;28;20208;-71
2022/12/29 02:01:07;;;;;;;1.37;0.80;;;;;;;7.33;75.24;95993.56;5036369;28;20507;-73
2022/12/29 02:03:37;;;;;;;2.33;1.20;;;;;;;7.39;74.80;95991.09;5035791;28;20692;-71
2022/12/29 02:06:09;;;;;;;1.63;1.00;;;;;;;7.37;75.77;95987.03;5035284;28;20643;-72
2022/12/29 02:08:38;;;;;;;1.97;1.20;;;;;;;7.14;77.96;95986.03;5035780;28;20536;-73
2022/12/29 02:11:05;;;;;;;4.70;1.10;;;;;;;7.11;80.06;95975.03;5035931;28;20472;-72
2022/12/29 02:13:32;;;;;;;1.40;1.00;;;;;;;6.99;79.91;95969.31;5035085;28;20939;-72
2022/12/29 02:16:09;;;;;;;1.50;1.00;;;;;;;7.12;79.97;95974.06;5034992;28;20200;-71
2022/12/29 02:18:45;;;;;;;1.50;0.80;;;;;;;7.11;80.11;95964.56;5034476;28;20205;-72
2022/12/29 02:21:42;;;;;;;2.33;1.10;;;;;;;7.08;78.85;95962.28;5035188;28;20519;-71
2022/12/29 02:24:59;;;;;;;3.77;1.17;;;;;;;7.11;79.42;95961.94;5034468;28;20227;-73
2022/12/29 02:27:49;;;;;;;2.33;1.07;;;;;;;7.04;79.31;95956.53;5034938;28;20691;-72
2022/12/29 02:30:36;;;;;;;1.00;0.80;;;;;;;7.04;80.44;95955.69;5035826;28;20572;-71
2022/12/29 02:33:12;;;;;;;1.67;0.90;;;;;;;6.97;80.75;95958.16;5039553;28;20981;-71
2022/12/29 02:35:46;;;;;;;2.00;1.00;;;;;;;6.89;78.62;95960.75;5039079;28;20357;-71
2022/12/29 02:38:21;;;;;;;1.70;1.20;;;;;;;6.93;79.98;95966.50;5038895;28;20219;-71
2022/12/29 02:40:54;;;;;;;2.33;1.20;;;;;;;6.88;81.31;95960.94;5039448;28;20606;-71
2022/12/29 02:43:27;;;;;;;2.50;1.20;;;;;;;6.96;80.21;95959.16;5038829;28;20205;-73
2022/12/29 02:45:59;;;;;;;1.97;1.20;;;;;;;6.93;80.70;95951.59;5038662;28;20208;-73
2022/12/29 02:48:32;;;;;;;2.30;1.03;;;;;;;6.94;81.94;95944.59;5039385;28;20209;-72
2022/12/29 02:51:03;;;;;;;1.70;1.20;;;;;;;6.92;82.33;95941.28;5038662;28;20692;-72
2022/12/29 02:56:16;;;;;;;1.67;1.00;;;;;;;6.82;82.65;95943.25;5038959;28;20542;-73
2022/12/29 02:58:43;;;;;;;3.50;1.33;;;;;;;6.81;82.22;95946.81;5039073;28;20208;-71
2022/12/29 03:01:24;;;;;;;3.47;1.13;;;;;;;6.99;82.45;95945.72;5038638;28;20229;-71
2022/12/29 03:04:10;;;;;;;1.50;1.10;;;;;;;6.97;82.26;95941.63;5038796;28;20197;-71
2022/12/29 03:06:51;;;;;;;2.90;1.20;;;;;;;6.95;82.81;95943.56;5039308;28;20205;-73
2022/12/29 03:09:26;;;;;;;2.43;1.40;;;;;;;6.90;83.28;95943.28;5038533;28;20713;-71
2022/12/29 03:12:09;;;;;;;2.63;1.20;;;;;;;6.82;84.65;95946.69;5038664;28;20294;-73
2022/12/29 03:17:41;;;;;;;0.93;0.83;;;;;;;6.75;85.54;95942.25;5038381;28;20235;-73
2022/12/29 03:20:10;;;;;;;2.77;1.33;;;;;;;6.62;85.34;95936.66;5038541;28;20620;-73
2022/12/29 03:22:42;;;;;;;2.50;1.40;;;;;;;6.66;86.34;95938.78;5033703;28;20244;-71
2022/12/29 03:25:14;;;;;;;1.13;0.90;;;;;;;6.69;86.90;95929.81;5036013;28;20220;-71
2022/12/29 03:27:44;;;;;;;3.00;1.03;;;;;;;6.67;87.74;95931.78;5038296;28;20200;-71
2022/12/29 03:30:12;;;;;;;1.40;1.20;;;;;;;6.62;85.84;95928.81;5038421;28;20232;-71
2022/12/29 03:32:45;;;;;;;1.53;1.03;;;;;;;6.75;86.96;95924.72;5037347;28;20209;-71
2022/12/29 03:35:15;;;;;;;2.17;1.20;;;;;;;6.77;86.34;95921.94;5038059;28;20666;-73
2022/12/29 03:37:50;;;;;;;2.33;1.33;;;;;;;6.84;84.41;95915.09;5038258;28;20212;-71
2022/12/29 03:40:17;;;;;;;1.70;1.27;;;;;;;6.79;84.74;95918.19;5037642;28;20247;-71
2022/12/29 03:42:44;;;;;;;1.43;1.00;;;;;;;6.70;85.49;95928.81;5037160;28;20221;-72
2022/12/29 03:45:11;;;;;;;2.17;1.20;;;;;;;6.75;83.76;95921.31;5037541;28;20209;-71
2022/12/29 03:47:39;;;;;;;2.47;1.27;;;;;;;6.76;84.40;95915.91;5038073;28;20197;-72
2022/12/29 03:50:08;;;;;;;1.90;0.97;;;;;;;6.83;84.35;95913.47;5038186;28;20586;-71
2022/12/29 03:52:34;;;;;;;2.70;1.10;;;;;;;6.77;84.26;95907.06;5038479;28;20197;-71
2022/12/29 03:55:01;;;;;;;4.23;1.20;;;;;;;6.82;85.36;95901.34;5037936;28;20201;-71
2022/12/29 03:57:27;;;;;;;1.83;1.30;;;;;;;6.72;87.12;95905.91;5037614;28;20219;-73
2022/12/29 03:59:54;;;;;;;1.13;1.00;;;;;;;6.67;87.92;95908.22;5037422;28;20229;-70
2022/12/29 04:02:21;;;;;;;6.60;1.20;;;;;;;6.70;85.47;95908.69;5037893;28;20228;-71
2022/12/29 04:04:48;;;;;;;2.10;1.10;;;;;;;6.78;85.76;95911.34;5037495;28;20208;-72
2022/12/29 04:07:15;;;;;;;1.97;1.27;;;;;;;6.67;86.49;95919.50;5037754;28;20205;-71
2022/12/29 04:09:41;;;;;;;2.67;1.43;;;;;;;6.73;86.29;95912.78;5037467;28;20236;-71
2022/12/29 04:12:08;;;;;;;4.13;1.37;;;;;;;6.75;85.57;95916.06;5037332;28;20559;-71
2022/12/29 04:14:34;;;;;;;1.63;1.10;;;;;;;6.70;86.83;95916.53;5031916;28;20209;-71
2022/12/29 04:17:01;;;;;;;2.57;1.33;;;;;;;6.69;86.98;95920.16;5038301;28;20216;-71
2022/12/29 04:19:27;;;;;;;2.53;1.10;;;;;;;6.68;87.31;95922.91;5037312;28;20601;-71
2022/12/29 04:21:55;;;;;;;3.10;1.57;;;;;;;6.72;88.34;95919.84;5037036;28;20225;-72
2022/12/29 04:24:22;;;;;;;1.83;1.20;;;;;;;6.63;87.87;95921.78;5036013;28;20452;-71
2022/12/29 04:26:48;;;;;;;1.63;1.10;;;;;;;6.57;87.80;95914.53;5037639;28;20972;-73
2022/12/29 04:29:15;;;;;;;1.53;1.00;;;;;;;6.55;88.53;95924.38;5036781;28;20228;-70
2022/12/29 04:31:41;;;;;;;1.57;1.40;;;;;;;6.47;89.02;95912.09;5036853;28;20228;-73
2022/12/29 04:34:08;;;;;;;1.90;1.30;;;;;;;6.38;89.22;95918.28;5036667;28;20200;-72
2022/12/29 04:36:34;;;;;;;1.53;0.90;;;;;;;6.51;87.79;95909.97;5036991;28;20695;-71
2022/12/29 04:39:04;;;;;;;2.17;1.40;;;;;;;6.56;88.38;95905.88;5037099;28;20232;-71
2022/12/29 04:41:31;;;;;;;4.07;1.60;;;;;;;6.48;88.29;95911.13;5036988;28;20232;-71
2022/12/29 04:43:58;;;;;;;2.27;1.30;;;;;;;6.42;90.76;95903.88;5036268;28;20665;-73
2022/12/29 04:46:24;;;;;;;3.80;1.30;;;;;;;6.43;90.85;95908.16;5037012;28;20228;-71
2022/12/29 04:48:51;;;;;;;1.63;1.20;;;;;;;6.39;91.17;95898.16;5036720;28;20216;-73
2022/12/29 04:51:17;;;;;;;4.07;1.27;;;;;;;6.26;92.03;95910.88;5036023;28;20239;-72
2022/12/29 04:53:44;;;;;;;2.47;1.07;;;;;;;6.31;92.21;95905.97;5035185;28;20676;-72
2022/12/29 04:56:12;;;;;;;4.27;1.60;;;;;;;6.32;92.17;95903.19;5036843;28;20205;-71
2022/12/29 04:58:38;;;;;;;3.93;1.10;;;;;;;6.23;93.78;95898.94;5036378;28;20205;-71
2022/12/29 05:01:05;;;;;;;6.13;1.10;;;;;;;6.22;93.23;95899.94;5036891;28;20216;-70
2022/12/29 05:03:31;;;;;;;1.80;0.97;;;;;;;6.17;92.87;95893.50;5036491;28;20216;-71
2022/12/29 05:05:58;;;;;;;1.47;0.97;;;;;;;6.23;91.22;95893.69;5036200;28;20209;-71
2022/12/29 05:08:24;;;;;;;4.23;1.13;;;;;;;6.21;91.57;95895.66;5036467;28;20732;-73
2022/12/29 05:10:52;;;;;;;3.93;1.30;;;;;;;6.13;92.66;95897.44;5036447;28;20732;-71
2022/12/29 05:13:19;;;;;;;2.47;1.40;;;;;;;6.24;90.96;95895.34;5036731;28;20212;-70
2022/12/29 05:15:50;;;;;;;3.07;1.30;;;;;;;6.32;90.30;95894.53;5035021;28;20204;-72
2022/12/29 05:18:16;;;;;;;2.27;1.10;;;;;;;6.26;89.93;95893.41;5036187;28;20205;-71
2022/12/29 05:20:43;;;;;;;3.30;1.60;;;;;;;6.38;89.80;95892.09;5036879;28;20221;-72
2022/12/29 05:23:10;;;;;;;2.20;1.20;;;;;;;6.62;86.94;95894.78;5036454;28;20225;-71
2022/12/29 05:25:36;;;;;;;3.90;1.23;;;;;;;6.68;86.58;95904.59;5035109;28;20224;-72
2022/12/29 05:28:03;;;;;;;1.77;1.10;;;;;;;6.82;85.79;95906.56;5036938;28;20212;-73
2022/12/29 05:30:30;;;;;;;1.80;1.10;;;;;;;7.01;84.90;95907.06;5036800;28;20229;-71
2022/12/29 05:32:57;;;;;;;2.53;1.37;;;;;;;6.98;85.07;95909.22;5035770;28;20197;-72
2022/12/29 05:35:23;;;;;;;2.93;2.13;;;;;;;7.08;84.81;95902.03;5035254;28;20205;-71
2022/12/29 05:37:50;;;;;;;4.00;1.17;;;;;;;7.14;84.37;95906.59;5036407;28;20292;-71
2022/12/29 05:40:16;;;;;;;3.03;1.80;;;;;;;7.16;84.57;95915.13;5035905;28;20233;-71
2022/12/29 05:42:43;;;;;;;3.60;1.10;;;;;;;7.21;84.02;95918.88;5036093;28;20604;-72
2022/12/29 05:45:10;;;;;;;1.60;1.20;;;;;;;7.27;84.60;95913.78;5035590;28;20674;-71
2022/12/29 05:47:38;;;;;;;4.03;1.47;;;;;;;7.35;84.52;95905.91;5035885;28;20232;-71
2022/12/29 05:50:05;;;;;;;1.80;1.00;;;;;;;7.27;84.57;95908.56;5035691;28;20220;-72
2022/12/29 05:52:31;;;;;;;2.50;1.47;;;;;;;7.22;84.15;95910.03;5036296;28;20201;-71
2022/12/29 05:54:58;;;;;;;4.77;1.40;;;;;;;7.21;84.67;95910.22;5035638;28;20205;-71
2022/12/29 05:57:24;;;;;;;5.00;1.60;;;;;;;7.16;84.78;95915.13;5035726;28;20704;-73
2022/12/29 05:59:51;;;;;;;3.90;1.63;;;;;;;7.20;85.38;95917.22;5036282;28;20221;-71
2022/12/29 06:02:17;;;;;;;1.80;1.13;;;;;;;7.29;84.50;95931.97;5035936;28;20225;-72
2022/12/29 06:04:45;;;;;;;3.60;1.30;;;;;;;7.53;84.00;95924.91;5037587;28;20205;-72
2022/12/29 06:07:12;;;;;;;1.87;1.20;;;;;;;7.46;84.87;95926.56;5042578;28;20395;-70
2022/12/29 06:09:39;;;;;;;5.90;2.27;;;;;;;7.45;84.81;95927.53;5042500;28;20592;-71
2022/12/29 06:12:06;;;;;;;10.77;3.80;;;;;;;7.51;84.53;95926.06;5042638;28;20205;-74
2022/12/29 06:14:33;;;;;;;21.13;6.53;;;;;;;7.49;85.30;95933.28;5041755;28;20228;-71
2022/12/29 06:16:59;;;;;;;28.50;9.67;;;;;;;7.49;85.19;95941.16;5042289;28;20212;-73
2022/12/29 06:19:26;;;;;;;18.63;6.97;;;;;;;7.49;85.58;95938.53;5042638;28;20236;-73
2022/12/29 06:21:54;;;;;;;4.80;1.50;;;;;;;7.63;85.33;95930.78;5042607;28;20233;-72
2022/12/29 06:24:21;;;;;;;3.60;1.60;;;;;;;7.61;85.73;95930.16;5041844;28;20212;-71
2022/12/29 06:26:47;;;;;;;3.03;1.50;;;;;;;7.73;84.84;95935.88;5042821;28;20215;-73
2022/12/29 06:29:16;;;;;;;3.70;1.57;;;;;;;7.74;84.65;95943.56;5043095;28;20229;-72
2022/12/29 06:31:43;;;;;;;2.53;1.07;;;;;;;7.85;84.80;95930.09;5042889;28;20232;-72
2022/12/29 06:34:09;;;;;;;2.73;1.40;;;;;;;7.90;84.46;95928.63;5041645;28;20212;-70
2022/12/29 06:36:36;;;;;;;2.07;1.20;;;;;;;7.98;84.28;95931.22;5043469;28;20212;-71
2022/12/29 06:39:04;;;;;;;1.73;1.20;;;;;;;8.12;84.42;95941.00;5044020;28;20229;-71
2022/12/29 06:41:31;;;;;;;4.30;1.30;;;;;;;8.01;84.62;95935.31;5042569;28;20271;-70
2022/12/29 06:43:57;;;;;;;1.90;0.90;;;;;;;8.08;84.81;95936.25;5041881;28;20231;-69
2022/12/29 06:46:24;;;;;;;4.40;2.20;;;;;;;8.14;84.35;95943.50;5043482;28;20208;-71
2022/12/29 06:48:50;;;;;;;1.77;1.00;;;;;;;8.18;84.64;95940.34;5042700;28;20228;-70
2022/12/29 06:51:17;;;;;;;5.20;1.90;;;;;;;8.27;84.58;95935.88;5042533;28;20221;-69
2022/12/29 06:53:43;;;;;;;6.37;2.30;;;;;;;8.18;85.19;95937.72;5042512;28;21031;-71
2022/12/29 06:56:11;;;;;;;18.80;2.10;;;;;;;8.32;84.56;95928.31;5042723;28;20300;-70
2022/12/29 06:58:38;;;;;;;11.83;3.13;;;;;;;8.22;85.08;95930.34;5042759;28;20216;-70
2022/12/29 07:01:05;;;;;;;17.43;4.97;;;;;;;8.23;85.44;95930.16;5043052;28;20208;-71
2022/12/29 07:03:31;;;;;;;6.30;3.50;;;;;;;8.17;85.46;95924.78;5042609;28;20279;-70
2022/12/29 07:05:58;;;;;;;17.37;5.20;;;;;;;8.10;86.43;95913.28;5039207;28;20205;-70
2022/12/29 07:08:24;;;;;;;19.57;3.63;;;;;;;8.16;86.52;95918.72;5042360;28;20738;-70
2022/12/29 07:10:51;;;;;;;9.57;2.60;;;;;;;8.05;86.49;95905.91;5041837;28;20603;-70
2022/12/29 07:13:19;;;;;;;19.30;5.73;;;;;;;7.97;87.82;95907.78;5042594;28;20201;-70
2022/12/29 07:15:45;;;;;;;6.50;2.67;;;;;;;7.94;87.54;95915.97;5040291;28;20216;-71
2022/12/29 07:18:12;;;;;;;23.37;3.47;;;;;;;8.03;86.57;95917.56;5038990;28;20209;-70
2022/12/29 07:20:38;;;;;;;18.73;3.97;;;;;;;8.13;86.07;95907.69;5040242;28;20221;-70
2022/12/29 07:23:05;;;;;;;23.47;5.90;;;;;;;8.11;87.01;95907.88;5039749;28;20221;-69
2022/12/29 07:25:32;;;;;;;11.07;5.03;;;;;;;8.25;85.77;95906.34;5038217;28;21093;-70
2022/12/29 07:27:58;;;;;;;6.77;2.40;;;;;;;8.22;85.95;95901.47;5039369;28;20228;-69
2022/12/29 07:30:26;;;;;;;8.27;2.73;;;;;;;8.32;85.46;95904.69;5037946;28;20225;-69
2022/12/29 07:32:52;;;;;;;8.03;2.53;;;;;;;8.28;85.62;95908.66;5036796;28;20216;-68
2022/12/29 07:35:19;;;;;;;11.47;2.50;;;;;;;8.36;84.80;95906.81;5037130;28;20217;-70
2022/12/29 07:37:46;;;;;;;5.93;2.00;;;;;;;8.45;84.25;95913.66;5038626;28;20208;-69
2022/12/29 07:40:12;;;;;;;4.70;1.40;;;;;;;8.48;83.64;95920.34;5038141;28;20221;-70
2022/12/29 07:42:39;;;;;;;3.30;1.70;;;;;;;8.54;84.02;95929.22;5038155;28;20700;-69
2022/12/29 07:45:06;;;;;;;2.50;1.47;;;;;;;8.66;83.39;95934.88;5038145;28;20205;-71
2022/12/29 07:47:34;;;;;;;4.03;1.83;;;;;;;8.62;83.23;95933.59;5038527;28;20205;-71
2022/12/29 07:50:01;;;;;;;5.37;1.60;;;;;;;8.67;82.61;95934.72;5038250;28;20229;-71
2022/12/29 07:52:27;;;;;;;3.77;1.80;;;;;;;8.74;82.15;95916.44;5039127;28;20288;-71
2022/12/29 07:54:54;;;;;;;3.97;1.90;;;;;;;8.65;81.92;95926.16;5038219;28;21061;-71
2022/12/29 07:57:20;;;;;;;2.23;1.40;;;;;;;8.66;81.96;95919.13;5039370;28;20855;-71
2022/12/29 07:59:47;;;;;;;3.60;1.20;;;;;;;8.78;81.52;95915.94;5037528;28;20232;-71
2022/12/29 08:02:13;;;;;;;4.60;1.40;;;;;;;8.73;81.63;95927.94;5037807;28;20767;-71
2022/12/29 08:04:41;;;;;;;4.40;1.40;;;;;;;8.83;80.75;95934.59;5038171;28;20197;-71
2022/12/29 08:07:08;;;;;;;3.17;1.40;;;;;;;8.82;80.60;95932.16;5036161;28;20209;-71
2022/12/29 08:09:35;;;;;;;3.50;1.80;;;;;;;8.83;80.42;95924.09;5036168;28;20728;-71
2022/12/29 08:12:01;;;;;;;2.50;1.40;;;;;;;8.81;80.25;95922.66;5036627;28;20208;-71
2022/12/29 08:14:28;;;;;;;4.13;1.53;;;;;;;8.93;78.60;95921.25;5035774;28;20689;-71
2022/12/29 08:16:54;;;;;;;6.43;1.40;;;;;;;9.00;78.33;95933.53;5037154;28;20209;-71
2022/12/29 08:19:21;;;;;;;3.50;1.80;;;;;;;9.08;77.91;95927.41;5036981;28;20710;-71
2022/12/29 08:21:49;;;;;;;5.57;1.47;;;;;;;9.22;77.61;95935.34;5035556;28;20669;-68
2022/12/29 08:24:16;;;;;;;7.60;2.60;;;;;;;9.19;77.33;95943.59;5036036;28;20225;-69
2022/12/29 08:26:42;;;;;;;4.53;2.27;;;;;;;9.18;77.81;95952.47;5036881;28;20189;-69
2022/12/29 08:29:09;;;;;;;2.53;1.53;;;;;;;9.18;77.70;95941.94;5034764;28;20229;-70
2022/12/29 08:31:35;;;;;;;6.17;1.20;;;;;;;9.28;76.40;95950.41;5037170;28;20217;-69
2022/12/29 08:34:03;;;;;;;2.63;0.90;;;;;;;9.34;77.07;95947.06;5037179;28;20685;-70
2022/12/29 08:36:29;;;;;;;3.17;1.67;;;;;;;9.32;77.25;95951.69;5036685;28;20209;-71
2022/12/29 08:38:58;;;;;;;4.13;1.30;;;;;;;9.48;77.36;95951.56;5035169;28;20584;-71
2022/12/29 08:41:24;;;;;;;4.47;1.43;;;;;;;9.42;76.84;95947.00;5036624;28;20456;-69
2022/12/29 08:43:51;;;;;;;5.43;1.57;;;;;;;9.32;77.90;95951.69;5035907;28;20232;-70
2022/12/29 08:46:17;;;;;;;7.13;1.87;;;;;;;9.43;77.67;95956.53;5035170;28;20213;-70
2022/12/29 08:48:44;;;;;;;4.13;1.20;;;;;;;9.38;77.73;95964.13;5036405;28;20571;-71
2022/12/29 08:51:11;;;;;;;4.87;1.70;;;;;;;9.23;78.69;95958.81;5034927;28;20689;-72
2022/12/29 08:53:37;;;;;;;3.00;1.70;;;;;;;9.30;78.76;95970.25;5035020;28;20209;-71
2022/12/29 08:56:07;;;;;;;2.70;1.50;;;;;;;9.48;78.16;95962.06;5035850;28;21004;-70
2022/12/29 08:58:33;;;;;;;2.07;1.50;;;;;;;9.44;77.75;95966.84;5035865;28;20205;-70
2022/12/29 09:01:00;;;;;;;2.63;1.80;;;;;;;9.44;78.11;95966.06;5035893;28;21038;-69
2022/12/29 09:03:27;;;;;;;4.50;1.33;;;;;;;9.48;78.85;95968.16;5036263;28;20228;-69
2022/12/29 09:05:55;;;;;;;6.60;1.70;;;;;;;9.95;83.63;95974.81;5034868;28;20570;-70
2022/12/29 09:08:22;;;;;;;7.17;2.23;;;;;;;9.63;78.30;95973.47;5034646;28;20209;-70
2022/12/29 09:10:50;;;;;;;2.53;1.67;;;;;;;9.67;78.63;95972.91;5036019;28;20217;-70
2022/12/29 09:13:18;;;;;;;8.93;2.10;;;;;;;9.72;78.70;95978.47;5036462;28;20681;-71
2022/12/29 09:15:45;;;;;;;6.37;2.67;;;;;;;9.57;79.03;95976.78;5034393;28;20720;-70
2022/12/29 09:18:13;;;;;;;4.60;2.00;;;;;;;9.70;78.92;95967.31;5035238;28;20220;-70
2022/12/29 09:20:39;;;;;;;5.40;1.90;;;;;;;9.64;79.32;95973.28;5034999;28;20225;-69
2022/12/29 09:23:06;;;;;;;6.70;2.20;;;;;;;9.61;80.04;95978.91;5035536;28;20231;-70
2022/12/29 09:25:33;;;;;;;3.23;1.97;;;;;;;9.78;79.25;95983.84;5033845;28;20662;-70
2022/12/29 09:28:02;;;;;;;5.77;1.90;;;;;;;9.78;80.02;95970.69;5035669;28;20208;-71
2022/12/29 09:30:30;;;;;;;4.53;2.03;;;;;;;9.88;80.03;95970.44;5035077;28;20240;-71
2022/12/29 09:32:57;;;;;;;4.73;1.60;;;;;;;9.87;79.92;95963.53;5035897;28;20198;-69
2022/12/29 09:35:23;;;;;;;3.43;1.77;;;;;;;9.99;79.69;95976.13;5034872;28;20916;-71
2022/12/29 09:37:50;;;;;;;2.03;1.50;;;;;;;9.91;80.23;95973.50;5035380;28;20204;-71
2022/12/29 09:40:28;;;;;;;3.90;1.70;;;;;;;10.30;78.99;95962.75;5034253;28;20236;-71
2022/12/29 09:43:06;;;;;;;2.40;1.70;;;;;;;10.58;78.29;95965.41;5031148;28;20232;-71
2022/12/29 09:45:40;;;;;;;4.63;1.80;;;;;;;10.70;78.50;95963.91;5029429;28;20215;-70
2022/12/29 09:48:15;;;;;;;3.73;1.20;;;;;;;10.85;77.15;95956.00;5034047;28;20220;-70
2022/12/29 09:50:45;;;;;;;4.70;1.53;;;;;;;10.99;77.22;95964.66;5033886;28;20235;-71
2022/12/29 09:53:19;;;;;;;3.73;1.60;;;;;;;11.15;76.49;95963.63;5034975;28;20201;-70
2022/12/29 09:55:49;;;;;;;7.70;1.90;;;;;;;11.12;77.31;95954.25;5033451;28;20213;-70
2022/12/29 09:58:22;;;;;;;3.37;1.53;;;;;;;11.20;76.88;95955.97;5033672;28;21176;-71
2022/12/29 10:00:57;;;;;;;4.63;1.40;;;;;;;11.21;77.44;95952.34;5034102;28;20237;-70
2022/12/29 10:03:28;;;;;;;2.97;1.33;;;;;;;11.33;76.51;95962.22;5034357;28;20232;-70
2022/12/29 10:06:05;;;;;;;3.37;1.40;;;;;;;11.40;75.97;95964.91;5033945;28;20201;-70
2022/12/29 10:08:40;;;;;;;2.43;1.27;;;;;;;11.51;75.90;95954.69;5034739;28;20205;-70
2022/12/29 10:11:21;;;;;;;3.53;1.90;;;;;;;11.62;75.23;95951.53;5035971;28;20223;-70
2022/12/29 10:14:02;;;;;;;4.53;1.50;;;;;;;11.65;74.45;95951.19;5034076;28;20192;-70
2022/12/29 10:16:39;;;;;;;5.23;2.07;;;;;;;11.84;74.55;95946.06;5035803;28;20213;-70
2022/12/29 10:19:27;;;;;;;4.10;1.30;;;;;;;11.85;73.69;95946.84;5033635;28;20239;-70
2022/12/29 10:22:05;;;;;;;3.67;1.30;;;;;;;11.93;73.69;95933.53;5032919;28;20205;-70
2022/12/29 10:24:35;;;;;;;2.87;1.20;;;;;;;11.87;73.36;95931.66;5032225;28;20223;-71
2022/12/29 10:27:02;;;;;;;4.93;2.00;;;;;;;11.81;73.36;95935.03;5033643;28;20215;-71
2022/12/29 10:29:34;;;;;;;7.57;1.90;;;;;;;12.08;72.77;95927.13;5033351;28;20251;-70
2022/12/29 10:32:06;;;;;;;3.20;1.20;;;;;;;11.92;72.89;95922.13;5034010;28;20197;-70
2022/12/29 10:34:38;;;;;;;6.90;1.77;;;;;;;12.05;72.56;95922.22;5033191;28;20197;-71
2022/12/29 10:37:12;;;;;;;2.87;1.17;;;;;;;12.09;71.76;95928.75;5034579;28;20201;-70
2022/12/29 10:39:45;;;;;;;2.43;1.70;;;;;;;12.09;72.11;95925.31;5034923;28;20693;-70
2022/12/29 10:42:16;;;;;;;3.00;1.23;;;;;;;12.25;71.65;95926.63;5034935;28;20212;-70
2022/12/29 10:44:43;;;;;;;1.70;1.23;;;;;;;12.31;71.82;95923.22;5031524;28;20232;-70
2022/12/29 10:47:16;;;;;;;2.73;1.40;;;;;;;12.70;71.73;95918.09;5035280;28;20216;-70
2022/12/29 10:49:46;;;;;;;3.70;1.90;;;;;;;12.76;71.28;95907.53;5034605;28;20225;-70
2022/12/29 10:52:14;;;;;;;2.57;1.20;;;;;;;12.87;69.84;95903.56;5037294;28;20848;-70
2022/12/29 10:54:47;;;;;;;2.27;1.40;;;;;;;13.10;69.65;95893.47;5039421;28;20197;-70
2022/12/29 10:57:25;;;;;;;1.90;0.90;;;;;;;13.06;69.03;95897.50;5039275;28;20705;-70
2022/12/29 10:59:51;;;;;;;4.07;1.90;;;;;;;13.06;69.30;95903.63;5038663;28;20225;-70
2022/12/29 11:02:44;;;;;;;3.00;1.43;;;;;;;13.27;68.88;95886.75;5039521;28;20209;-70
2022/12/29 11:05:17;;;;;;;5.60;1.20;;;;;;;13.23;67.99;95891.63;5039119;28;20599;-70
2022/12/29 11:07:45;;;;;;;4.00;1.40;;;;;;;13.18;68.14;95895.91;5039043;28;20224;-70
2022/12/29 11:10:21;;;;;;;3.83;1.53;;;;;;;13.28;68.24;95896.34;5039168;28;20721;-71
2022/12/29 11:12:59;;;;;;;1.53;1.00;;;;;;;13.14;68.11;95910.56;5039289;28;20216;-70
2022/12/29 11:15:26;;;;;;;3.93;1.20;;;;;;;12.94;68.60;95914.97;5038763;28;20212;-70
2022/12/29 11:17:59;;;;;;;2.87;1.10;;;;;;;12.81;68.89;95910.41;5039389;28;21252;-70
2022/12/29 11:20:32;;;;;;;1.77;1.07;;;;;;;12.76;69.65;95905.94;5037953;28;20239;-70
2022/12/29 11:22:59;;;;;;;4.00;1.23;;;;;;;12.65;70.32;95907.28;5038271;28;20665;-70
2022/12/29 11:25:27;;;;;;;3.00;1.13;;;;;;;12.70;70.64;95896.94;5038792;28;21019;-70
2022/12/29 11:27:58;;;;;;;3.13;1.17;;;;;;;12.62;70.42;95896.31;5038976;28;20201;-70
2022/12/29 11:30:26;;;;;;;3.60;1.03;;;;;;;12.69;70.61;95894.50;5038805;28;20736;-71
2022/12/29 11:32:56;;;;;;;4.57;1.50;;;;;;;12.72;70.07;95897.56;5039328;28;20212;-71
2022/12/29 11:35:35;;;;;;;3.77;1.53;;;;;;;12.76;70.45;95890.88;5038317;28;20212;-71
2022/12/29 11:38:03;;;;;;;3.90;1.20;;;;;;;12.65;71.37;95899.38;5038951;28;20208;-71
2022/12/29 11:40:31;;;;;;;3.83;1.10;;;;;;;12.60;71.17;95901.81;5039083;28;20243;-71
2022/12/29 11:43:02;;;;;;;3.60;1.37;;;;;;;12.72;71.10;95900.22;5039216;28;20205;-71
2022/12/29 11:45:33;;;;;;;3.83;1.13;;;;;;;12.65;71.58;95907.28;5037913;28;20279;-71
2022/12/29 11:48:06;;;;;;;3.20;1.10;;;;;;;12.55;71.78;95900.75;5038961;28;20692;-71
2022/12/29 11:50:36;;;;;;;3.93;1.97;;;;;;;12.42;71.92;95908.63;5038513;28;20237;-70
2022/12/29 11:53:11;;;;;;;2.50;0.90;;;;;;;12.55;72.44;95909.50;5035391;28;20997;-71
2022/12/29 11:55:37;;;;;;;2.80;1.27;;;;;;;12.32;72.37;95902.88;5038902;28;20192;-71
2022/12/29 11:58:05;;;;;;;2.10;0.90;;;;;;;12.37;72.00;95909.22;5038617;28;20213;-70
2022/12/29 12:00:35;;;;;;;2.30;0.97;;;;;;;12.22;72.42;95886.59;5038702;28;20220;-71
2022/12/29 12:03:05;;;;;;;4.93;1.30;;;;;;;12.46;72.05;95897.47;5039029;28;20581;-70
2022/12/29 12:05:38;;;;;;;1.53;1.07;;;;;;;12.52;72.13;95893.22;5041041;28;20220;-70
2022/12/29 12:08:13;;;;;;;3.70;1.60;;;;;;;12.53;71.38;95897.50;5041653;28;20197;-71
2022/12/29 12:10:45;;;;;;;2.07;1.20;;;;;;;12.56;71.24;95900.53;5038595;28;20232;-70
2022/12/29 12:13:26;;;;;;;3.17;1.30;;;;;;;12.67;72.00;95894.72;5038234;28;20205;-70
2022/12/29 12:15:58;;;;;;;2.90;1.40;;;;;;;12.62;71.99;95891.84;5037337;28;20735;-70
2022/12/29 12:18:39;;;;;;;4.93;1.67;;;;;;;12.64;71.80;95895.13;5039076;28;20224;-71
2022/12/29 12:21:12;;;;;;;10.70;4.20;;;;;;;12.62;72.53;95888.41;5038529;28;20201;-71
2022/12/29 12:23:57;;;;;;;3.90;1.13;;;;;;;12.56;72.75;95886.53;5037365;28;20201;-70
2022/12/29 12:26:32;;;;;;;6.30;2.10;;;;;;;12.56;73.22;95889.16;5037629;28;20204;-69